createdAt,value
2023-02-19T00:01:46.170Z,58.71
2023-02-19T00:03:53.959Z,58.89
2023-02-19T00:05:56.256Z,58.91
2023-02-19T00:07:58.911Z,58.63
2023-02-19T00:10:01.088Z,58.82
2023-02-19T00:12:03.164Z,58.78
2023-02-19T00:14:06.141Z,58.95
2023-02-19T00:16:10.029Z,58.95
2023-02-19T00:18:11.979Z,59.27
2023-02-19T00:20:14.550Z,59.56
2023-02-19T00:22:16.589Z,59.10
2023-02-19T00:24:19.664Z,59.42
2023-02-19T00:26:22.268Z,59.12
2023-02-19T00:28:24.672Z,59.17
2023-02-19T00:30:26.779Z,59.14
2023-02-19T00:32:28.912Z,59.60
2023-02-19T00:34:31.057Z,59.59
2023-02-19T00:36:36.284Z,59.32
2023-02-19T00:38:40.244Z,59.26
2023-02-19T00:40:42.420Z,59.64
2023-02-19T00:42:44.631Z,59.25
2023-02-19T00:44:51.186Z,59.37
2023-02-19T00:46:55.869Z,59.51
2023-02-19T00:48:58.800Z,59.13
2023-02-19T00:51:00.873Z,59.02
2023-02-19T00:53:03.344Z,59.53
2023-02-19T00:55:06.258Z,59.26
2023-02-19T00:57:08.397Z,59.03
2023-02-19T00:59:11.510Z,58.99
2023-02-19T01:01:14.499Z,59.12
2023-02-19T01:03:16.613Z,59.29
2023-02-19T01:05:18.804Z,58.94
2023-02-19T01:07:20.933Z,59.06
2023-02-19T01:09:24.885Z,58.99
2023-02-19T01:11:27.562Z,59.00
2023-02-19T01:13:30.277Z,58.94
2023-02-19T01:15:35.519Z,58.45
2023-02-19T01:17:38.403Z,59.00
2023-02-19T01:19:40.641Z,58.53
2023-02-19T01:21:42.859Z,58.38
2023-02-19T01:23:46.579Z,58.39
2023-02-19T01:25:48.710Z,58.60
2023-02-19T01:27:50.875Z,58.63
2023-02-19T01:29:52.794Z,58.35
2023-02-19T01:31:54.937Z,58.27
2023-02-19T01:34:00.584Z,58.48
2023-02-19T01:36:07.086Z,57.94
2023-02-19T01:38:09.088Z,58.58
2023-02-19T01:40:11.538Z,58.34
2023-02-19T01:42:17.212Z,58.33
2023-02-19T01:44:22.084Z,58.73
2023-02-19T01:46:33.012Z,57.84
2023-02-19T01:48:38.654Z,58.28
2023-02-19T01:50:47.710Z,58.27
2023-02-19T01:52:50.085Z,58.13
2023-02-19T01:54:55.258Z,58.15
2023-02-19T01:56:59.134Z,58.46
2023-02-19T01:59:02.278Z,58.27
2023-02-19T02:01:08.310Z,58.03
2023-02-19T02:03:10.921Z,58.25
2023-02-19T02:05:38.857Z,57.76
2023-02-19T02:07:59.704Z,57.99
2023-02-19T02:10:20.405Z,57.71
2023-02-19T02:12:22.512Z,58.14
2023-02-19T02:14:31.446Z,58.37
2023-02-19T02:16:54.435Z,58.50
2023-02-19T02:19:22.676Z,58.19
2023-02-19T02:21:36.140Z,57.81
2023-02-19T02:24:23.088Z,59.30
2023-02-19T02:26:49.803Z,58.76
2023-02-19T02:28:57.817Z,58.50
2023-02-19T02:31:07.383Z,58.51
2023-02-19T02:33:44.181Z,58.53
2023-02-19T02:36:07.825Z,58.64
2023-02-19T02:38:14.779Z,58.29
2023-02-19T02:40:20.079Z,58.34
2023-02-19T02:42:28.273Z,58.39
2023-02-19T02:45:04.803Z,58.41
2023-02-19T02:47:30.532Z,58.09
2023-02-19T02:49:57.383Z,58.12
2023-02-19T02:52:21.394Z,58.26
2023-02-19T02:54:49.736Z,58.13
2023-02-19T02:56:55.440Z,58.15
2023-02-19T02:58:59.559Z,58.00
2023-02-19T03:01:26.405Z,58.21
2023-02-19T03:03:31.463Z,58.09
2023-02-19T03:05:52.313Z,58.55
2023-02-19T03:08:16.996Z,58.78
2023-02-19T03:10:39.277Z,58.48
2023-02-19T03:13:01.749Z,58.10
2023-02-19T03:15:28.979Z,58.41
2023-02-19T03:18:10.219Z,58.61
2023-02-19T03:20:16.461Z,58.67
2023-02-19T03:22:24.149Z,58.45
2023-02-19T03:24:52.038Z,58.70
2023-02-19T03:26:58.742Z,58.82
2023-02-19T03:29:26.123Z,58.77
2023-02-19T03:31:38.472Z,58.39
2023-02-19T03:33:43.554Z,58.07
2023-02-19T03:35:50.393Z,57.80
2023-02-19T03:37:57.145Z,57.99
2023-02-19T03:40:00.021Z,57.84
2023-02-19T03:42:35.974Z,57.90
2023-02-19T03:44:48.364Z,58.42
2023-02-19T03:47:18.898Z,58.41
2023-02-19T03:49:32.773Z,58.13
2023-02-19T03:51:44.388Z,58.05
2023-02-19T03:53:54.701Z,58.28
2023-02-19T03:56:02.571Z,58.57
2023-02-19T03:58:10.333Z,58.42
2023-02-19T04:00:22.228Z,58.61
2023-02-19T04:02:32.492Z,58.11
2023-02-19T04:04:41.577Z,57.96
2023-02-19T04:06:52.924Z,58.05
2023-02-19T04:08:59.836Z,58.16
2023-02-19T04:11:03.350Z,58.21
2023-02-19T04:13:37.767Z,58.40
2023-02-19T04:15:45.397Z,58.01
2023-02-19T04:18:18.098Z,58.41
2023-02-19T04:20:22.612Z,58.57
2023-02-19T04:22:25.790Z,58.23
2023-02-19T04:25:01.176Z,58.26
2023-02-19T04:27:05.232Z,58.68
2023-02-19T04:29:10.956Z,58.46
2023-02-19T04:31:13.776Z,58.46
2023-02-19T04:33:16.228Z,58.53
2023-02-19T04:35:18.365Z,58.70
2023-02-19T04:37:20.702Z,58.59
2023-02-19T04:39:23.070Z,58.61
2023-02-19T04:41:25.420Z,58.68
2023-02-19T04:43:27.991Z,58.97
2023-02-19T04:45:30.297Z,58.81
2023-02-19T04:47:33.151Z,58.59
2023-02-19T04:49:35.167Z,58.41
2023-02-19T04:51:37.557Z,58.10
2023-02-19T04:53:39.535Z,58.12
2023-02-19T04:55:41.924Z,58.26
2023-02-19T04:57:43.996Z,58.01
2023-02-19T04:59:46.632Z,58.15
2023-02-19T05:01:48.749Z,58.25
2023-02-19T05:03:51.278Z,58.17
2023-02-19T05:05:53.649Z,58.30
2023-02-19T05:07:55.662Z,58.61
2023-02-19T05:09:59.970Z,58.42
2023-02-19T05:12:02.345Z,58.37
2023-02-19T05:14:05.301Z,58.76
2023-02-19T05:16:16.169Z,58.42
2023-02-19T05:18:18.628Z,58.05
2023-02-19T05:20:22.506Z,58.36
2023-02-19T05:22:24.770Z,58.79
2023-02-19T05:24:27.855Z,58.33
2023-02-19T05:26:31.430Z,58.63
2023-02-19T05:28:33.818Z,58.46
2023-02-19T05:30:35.978Z,58.88
2023-02-19T05:32:38.715Z,59.04
2023-02-19T05:34:43.163Z,59.06
2023-02-19T05:36:45.333Z,59.28
2023-02-19T05:38:48.101Z,58.93
2023-02-19T05:40:50.764Z,59.10
2023-02-19T05:42:52.822Z,59.38
2023-02-19T05:44:55.125Z,59.65
2023-02-19T05:46:57.324Z,59.54
2023-02-19T05:49:03.391Z,60.02
2023-02-19T05:51:12.228Z,59.68
2023-02-19T05:53:14.524Z,59.40
2023-02-19T05:55:16.716Z,59.76
2023-02-19T05:57:20.584Z,59.87
2023-02-19T05:59:25.668Z,59.86
2023-02-19T06:01:29.055Z,60.30
2023-02-19T06:03:31.192Z,60.55
2023-02-19T06:05:33.284Z,60.56
2023-02-19T06:07:35.411Z,60.73
2023-02-19T06:09:37.579Z,60.78
2023-02-19T06:11:40.348Z,60.58
2023-02-19T06:13:42.320Z,60.97
2023-02-19T06:15:44.270Z,61.08
2023-02-19T06:17:46.340Z,60.89
2023-02-19T06:19:48.725Z,60.94
2023-02-19T06:21:51.267Z,60.71
2023-02-19T06:23:54.495Z,60.88
2023-02-19T06:26:11.997Z,61.53
2023-02-19T06:28:14.064Z,61.02
2023-02-19T06:30:16.096Z,60.93
2023-02-19T06:32:18.628Z,61.96
2023-02-19T06:34:20.899Z,61.20
2023-02-19T06:36:23.904Z,62.39
2023-02-19T06:38:26.559Z,62.17
2023-02-19T06:40:29.130Z,61.95
2023-02-19T06:42:34.032Z,62.70
2023-02-19T06:44:36.520Z,62.95
2023-02-19T06:46:39.273Z,62.98
2023-02-19T06:48:44.932Z,63.66
2023-02-19T06:50:47.021Z,63.94
2023-02-19T06:52:49.348Z,63.77
2023-02-19T06:54:51.482Z,64.11
2023-02-19T06:56:53.610Z,64.03
2023-02-19T06:58:59.968Z,64.01
2023-02-19T07:01:02.336Z,63.96
2023-02-19T07:03:05.616Z,64.12
2023-02-19T07:05:07.841Z,63.67
2023-02-19T07:07:12.275Z,63.73
2023-02-19T07:09:14.319Z,63.44
2023-02-19T07:11:16.563Z,63.92
2023-02-19T07:13:19.039Z,64.17
2023-02-19T07:15:21.206Z,63.72
2023-02-19T07:17:23.227Z,63.22
2023-02-19T07:19:27.698Z,63.49
2023-02-19T07:21:30.221Z,63.43
2023-02-19T07:23:32.486Z,63.35
2023-02-19T07:25:34.493Z,63.35
2023-02-19T07:27:37.545Z,63.38
2023-02-19T07:29:39.643Z,63.51
2023-02-19T07:31:41.817Z,63.17
2023-02-19T07:33:44.895Z,63.18
2023-02-19T07:35:48.699Z,63.07
2023-02-19T07:37:50.931Z,63.26
2023-02-19T07:39:52.904Z,64.00
2023-02-19T07:41:54.945Z,63.58
2023-02-19T07:44:01.875Z,63.36
2023-02-19T07:46:09.305Z,63.46
2023-02-19T07:48:11.371Z,63.30
2023-02-19T07:50:14.103Z,63.17
2023-02-19T07:52:16.326Z,63.46
2023-02-19T07:54:18.615Z,63.42
2023-02-19T07:56:21.107Z,63.97
2023-02-19T07:58:23.145Z,63.45
2023-02-19T08:00:26.129Z,62.93
2023-02-19T08:02:46.520Z,63.26
2023-02-19T08:04:49.336Z,63.48
2023-02-19T08:06:58.441Z,63.85
2023-02-19T08:09:00.781Z,63.41
2023-02-19T08:11:22.769Z,63.15
2023-02-19T08:13:26.528Z,63.71
2023-02-19T08:15:28.778Z,63.34
2023-02-19T08:17:31.370Z,63.36
2023-02-19T08:19:33.272Z,63.11
2023-02-19T08:21:35.595Z,63.19
2023-02-19T08:23:38.086Z,63.49
2023-02-19T08:25:41.143Z,63.87
2023-02-19T08:27:45.621Z,63.30
2023-02-19T08:29:47.941Z,63.35
2023-02-19T08:31:50.387Z,63.29
2023-02-19T08:33:52.590Z,63.49
2023-02-19T08:35:54.981Z,63.45
2023-02-19T08:37:58.216Z,63.74
2023-02-19T08:40:00.447Z,64.04
2023-02-19T08:42:02.398Z,63.67
2023-02-19T08:44:04.572Z,63.73
2023-02-19T08:46:11.297Z,63.94
2023-02-19T08:48:14.271Z,63.50
2023-02-19T08:50:16.352Z,63.77
2023-02-19T08:52:18.541Z,63.52
2023-02-19T08:54:20.797Z,63.36
2023-02-19T08:56:23.111Z,63.75
2023-02-19T08:58:28.150Z,64.17
2023-02-19T09:00:30.568Z,63.58
2023-02-19T09:02:33.018Z,63.96
2023-02-19T09:04:36.522Z,63.74
2023-02-19T09:06:40.160Z,63.67
2023-02-19T09:08:42.521Z,64.02
2023-02-19T09:10:44.583Z,63.97
2023-02-19T09:12:46.610Z,63.72
2023-02-19T09:14:48.834Z,63.56
2023-02-19T09:16:51.172Z,63.45
2023-02-19T09:18:53.233Z,63.56
2023-02-19T09:20:55.186Z,63.90
2023-02-19T09:22:58.672Z,63.66
2023-02-19T09:25:00.754Z,63.53
2023-02-19T09:27:02.818Z,63.91
2023-02-19T09:29:05.205Z,63.45
2023-02-19T09:31:09.594Z,63.55
2023-02-19T09:33:11.998Z,63.25
2023-02-19T09:35:14.174Z,63.08
2023-02-19T09:37:16.380Z,63.19
2023-02-19T09:39:18.723Z,63.28
2023-02-19T09:41:40.825Z,63.58
2023-02-19T09:43:44.067Z,63.46
2023-02-19T09:45:47.188Z,62.95
2023-02-19T09:47:53.588Z,63.22
2023-02-19T09:50:00.174Z,63.53
2023-02-19T09:52:23.004Z,63.33
2023-02-19T09:54:29.405Z,62.99
2023-02-19T09:56:34.015Z,63.22
2023-02-19T09:58:52.486Z,63.14
2023-02-19T10:00:58.911Z,62.95
2023-02-19T10:03:14.984Z,63.09
2023-02-19T10:05:17.766Z,63.31
2023-02-19T10:07:44.051Z,63.68
2023-02-19T10:09:52.831Z,63.46
2023-02-19T10:11:56.295Z,63.55
2023-02-19T10:14:42.038Z,63.52
2023-02-19T10:16:46.760Z,63.42
2023-02-19T10:18:48.859Z,63.28
2023-02-19T10:20:52.650Z,63.12
2023-02-19T10:23:07.158Z,63.43
2023-02-19T10:25:14.945Z,63.30
2023-02-19T10:27:16.942Z,63.13
2023-02-19T10:29:20.325Z,63.27
2023-02-19T10:31:25.971Z,62.91
2023-02-19T10:33:28.724Z,63.50
2023-02-19T10:35:35.480Z,63.07
2023-02-19T10:37:46.639Z,63.58
2023-02-19T10:39:50.823Z,63.33
2023-02-19T10:41:56.330Z,63.58
2023-02-19T10:44:16.468Z,63.67
2023-02-19T10:46:32.113Z,63.48
2023-02-19T10:48:47.033Z,63.89
2023-02-19T10:50:58.206Z,63.74
2023-02-19T10:53:02.175Z,64.30
2023-02-19T10:55:28.511Z,64.12
2023-02-19T10:57:33.191Z,63.73
2023-02-19T10:59:35.383Z,63.54
2023-02-19T11:01:53.134Z,63.42
2023-02-19T11:04:21.070Z,63.64
2023-02-19T11:06:27.080Z,63.32
2023-02-19T11:08:30.374Z,63.35
2023-02-19T11:10:45.206Z,63.23
2023-02-19T11:12:50.891Z,63.08
2023-02-19T11:14:52.907Z,63.20
2023-02-19T11:16:57.999Z,63.09
2023-02-19T11:19:00.651Z,63.44
2023-02-19T11:21:05.743Z,62.99
2023-02-19T11:23:17.620Z,62.90
2023-02-19T11:25:25.555Z,63.00
2023-02-19T11:27:27.753Z,62.87
2023-02-19T11:29:35.090Z,62.91
2023-02-19T11:31:37.755Z,63.18
2023-02-19T11:34:01.229Z,63.07
2023-02-19T11:36:15.529Z,63.46
2023-02-19T11:38:19.746Z,63.07
2023-02-19T11:40:30.561Z,63.38
2023-02-19T11:42:57.558Z,64.08
2023-02-19T11:45:24.740Z,63.72
2023-02-19T11:47:54.853Z,64.46
2023-02-19T11:50:05.788Z,64.54
2023-02-19T11:52:13.940Z,64.88
2023-02-19T11:54:24.474Z,65.15
2023-02-19T11:56:34.376Z,64.87
2023-02-19T11:58:51.233Z,65.36
2023-02-19T12:01:10.086Z,65.18
2023-02-19T12:03:44.420Z,65.80
2023-02-19T12:06:10.068Z,66.43
2023-02-19T12:08:18.329Z,65.71
2023-02-19T12:10:24.707Z,65.85
2023-02-19T12:12:35.677Z,66.50
2023-02-19T12:14:47.914Z,66.17
2023-02-19T12:17:27.170Z,66.64
2023-02-19T12:19:47.961Z,66.99
2023-02-19T12:22:29.415Z,67.42
2023-02-19T12:24:31.730Z,66.46
2023-02-19T12:26:46.034Z,67.93
2023-02-19T12:29:18.651Z,67.17
2023-02-19T12:31:35.193Z,67.38
2023-02-19T12:34:05.315Z,67.71
2023-02-19T12:36:50.842Z,68.13
2023-02-19T12:39:17.134Z,67.96
2023-02-19T12:42:09.516Z,68.30
2023-02-19T12:44:21.009Z,67.70
2023-02-19T12:46:52.599Z,68.46
2023-02-19T12:49:23.267Z,68.40
2023-02-19T12:51:34.237Z,68.14
2023-02-19T12:53:36.234Z,67.30
2023-02-19T12:55:46.034Z,67.99
2023-02-19T12:57:51.845Z,67.96
2023-02-19T13:00:31.541Z,68.80
2023-02-19T13:03:00.069Z,68.38
2023-02-19T13:05:37.156Z,67.87
2023-02-19T13:08:01.492Z,67.68
2023-02-19T13:10:36.078Z,67.69
2023-02-19T13:12:43.404Z,67.58
2023-02-19T13:14:49.517Z,67.51
2023-02-19T13:17:00.413Z,67.43
2023-02-19T13:19:04.941Z,67.22
2023-02-19T13:21:08.691Z,67.15
2023-02-19T13:23:35.464Z,67.21
2023-02-19T13:25:57.508Z,66.73
2023-02-19T13:28:15.682Z,66.92
2023-02-19T13:30:32.025Z,66.96
2023-02-19T13:32:56.232Z,65.95
2023-02-19T13:35:21.884Z,65.34
2023-02-19T13:37:25.356Z,65.15
2023-02-19T13:39:29.212Z,65.05
2023-02-19T13:41:54.670Z,64.98
2023-02-19T13:44:00.987Z,64.92
2023-02-19T13:46:06.564Z,65.15
2023-02-19T13:48:23.973Z,65.51
2023-02-19T13:50:32.058Z,65.52
2023-02-19T13:52:38.283Z,65.35
2023-02-19T13:54:40.716Z,65.63
2023-02-19T13:56:43.014Z,65.34
2023-02-19T13:58:58.579Z,66.22
2023-02-19T14:01:04.742Z,66.29
2023-02-19T14:03:39.509Z,66.47
2023-02-19T14:06:09.870Z,66.37
2023-02-19T14:08:12.573Z,66.17
2023-02-19T14:10:46.249Z,66.92
2023-02-19T14:12:48.507Z,66.32
2023-02-19T14:14:52.333Z,66.54
2023-02-19T14:17:09.858Z,66.80
2023-02-19T14:19:35.828Z,66.94
2023-02-19T14:21:40.351Z,67.20
2023-02-19T14:23:43.528Z,66.72
2023-02-19T14:25:52.924Z,67.28
2023-02-19T14:28:17.416Z,68.29
2023-02-19T14:30:22.470Z,68.01
2023-02-19T14:32:25.122Z,68.25
2023-02-19T14:34:27.525Z,69.98
2023-02-19T14:36:41.690Z,69.58
2023-02-19T14:39:15.793Z,70.61
2023-02-19T14:41:18.634Z,69.41
2023-02-19T14:43:23.753Z,69.47
2023-02-19T14:45:29.113Z,70.23
2023-02-19T14:47:35.051Z,70.33
2023-02-19T14:49:55.469Z,71.88
2023-02-19T14:52:01.778Z,70.32
2023-02-19T14:54:15.812Z,70.92
2023-02-19T14:56:23.811Z,70.04
2023-02-19T14:58:32.241Z,69.15
2023-02-19T15:00:40.381Z,68.64
2023-02-19T15:02:43.592Z,68.67
2023-02-19T15:04:45.681Z,68.89
2023-02-19T15:06:47.902Z,69.27
2023-02-19T15:08:55.992Z,69.54
2023-02-19T15:10:58.677Z,69.34
2023-02-19T15:13:07.569Z,69.13
2023-02-19T15:15:19.192Z,69.65
2023-02-19T15:17:32.770Z,69.28
2023-02-19T15:19:37.663Z,68.95
2023-02-19T15:21:48.208Z,69.81
2023-02-19T15:23:51.336Z,69.44
2023-02-19T15:25:53.982Z,69.40
2023-02-19T15:28:21.894Z,69.37
2023-02-19T15:30:28.602Z,69.03
2023-02-19T15:32:30.832Z,68.76
2023-02-19T15:34:33.564Z,69.29
2023-02-19T15:36:35.703Z,68.98
2023-02-19T15:38:40.587Z,69.05
2023-02-19T15:40:47.325Z,69.39
2023-02-19T15:42:49.599Z,68.97
2023-02-19T15:45:22.718Z,70.01
2023-02-19T15:47:45.049Z,70.22
2023-02-19T15:49:57.341Z,69.97
2023-02-19T15:52:13.029Z,70.80
2023-02-19T15:54:20.624Z,70.46
2023-02-19T15:56:33.714Z,70.03
2023-02-19T15:59:14.854Z,68.76
2023-02-19T16:01:31.689Z,68.19
2023-02-19T16:03:35.482Z,68.09
2023-02-19T16:05:40.311Z,67.66
2023-02-19T16:07:44.059Z,67.65
2023-02-19T16:09:46.155Z,67.28
2023-02-19T16:11:51.831Z,67.04
2023-02-19T16:14:24.462Z,66.46
2023-02-19T16:16:31.004Z,65.47
2023-02-19T16:18:34.541Z,65.55
2023-02-19T16:20:36.758Z,65.39
2023-02-19T16:22:43.029Z,65.09
2023-02-19T16:24:55.319Z,65.15
2023-02-19T16:26:58.518Z,65.36
2023-02-19T16:29:00.834Z,65.21
2023-02-19T16:31:06.672Z,65.30
2023-02-19T16:33:33.640Z,65.52
2023-02-19T16:35:37.514Z,65.77
2023-02-19T16:37:44.294Z,65.78
2023-02-19T16:39:46.569Z,66.02
2023-02-19T16:41:48.676Z,65.44
2023-02-19T16:43:50.659Z,65.15
2023-02-19T16:45:53.173Z,65.84
2023-02-19T16:47:55.552Z,65.88
2023-02-19T16:50:00.360Z,66.26
2023-02-19T16:52:04.776Z,66.05
2023-02-19T16:54:07.052Z,65.97
2023-02-19T16:56:19.073Z,66.19
2023-02-19T16:58:21.626Z,66.10
2023-02-19T17:00:31.474Z,66.42
2023-02-19T17:02:34.018Z,65.94
2023-02-19T17:04:36.282Z,65.72
2023-02-19T17:06:38.563Z,65.81
2023-02-19T17:08:45.204Z,65.92
2023-02-19T17:10:47.401Z,66.22
2023-02-19T17:12:50.857Z,66.15
2023-02-19T17:14:53.426Z,65.75
2023-02-19T17:16:55.576Z,66.15
2023-02-19T17:18:59.094Z,65.76
2023-02-19T17:21:17.582Z,65.51
2023-02-19T17:23:19.627Z,65.23
2023-02-19T17:25:23.508Z,65.28
2023-02-19T17:27:25.561Z,65.31
2023-02-19T17:29:28.884Z,64.77
2023-02-19T17:31:34.354Z,64.83
2023-02-19T17:33:37.191Z,64.68
2023-02-19T17:35:39.370Z,65.21
2023-02-19T17:37:41.597Z,64.91
2023-02-19T17:39:43.855Z,65.27
2023-02-19T17:41:45.966Z,64.85
2023-02-19T17:43:50.542Z,64.49
2023-02-19T17:45:53.161Z,64.52
2023-02-19T17:47:57.187Z,64.54
2023-02-19T17:50:03.626Z,64.32
2023-02-19T17:52:06.092Z,64.38
2023-02-19T17:54:09.526Z,64.48
2023-02-19T17:56:17.027Z,64.36
2023-02-19T17:58:19.501Z,64.42
2023-02-19T18:00:30.014Z,64.21
2023-02-19T18:02:32.364Z,64.72
2023-02-19T18:04:40.142Z,64.58
2023-02-19T18:06:43.672Z,64.57
2023-02-19T18:08:50.952Z,64.29
2023-02-19T18:10:53.480Z,64.55
2023-02-19T18:12:56.059Z,64.52
2023-02-19T18:14:58.372Z,64.15
2023-02-19T18:17:02.830Z,64.60
2023-02-19T18:19:07.648Z,64.20
2023-02-19T18:21:11.476Z,64.73
2023-02-19T18:23:14.466Z,64.84
2023-02-19T18:25:17.363Z,64.92
2023-02-19T18:27:22.930Z,64.86
2023-02-19T18:29:27.159Z,64.82
2023-02-19T18:31:32.846Z,64.74
2023-02-19T18:33:35.513Z,64.53
2023-02-19T18:35:38.666Z,64.24
2023-02-19T18:37:40.886Z,64.67
2023-02-19T18:39:44.596Z,64.46
2023-02-19T18:41:51.207Z,64.70
2023-02-19T18:43:53.744Z,64.63
2023-02-19T18:45:55.753Z,64.61
2023-02-19T18:47:57.880Z,64.23
2023-02-19T18:49:59.964Z,64.59
2023-02-19T18:52:02.092Z,64.59
2023-02-19T18:54:04.656Z,64.43
2023-02-19T18:56:09.171Z,64.17
2023-02-19T18:58:11.185Z,64.16
2023-02-19T19:00:23.779Z,64.09
2023-02-19T19:02:27.135Z,64.24
2023-02-19T19:04:29.366Z,64.32
2023-02-19T19:06:31.844Z,63.92
2023-02-19T19:08:34.164Z,63.73
2023-02-19T19:10:36.271Z,63.75
2023-02-19T19:12:38.440Z,63.83
2023-02-19T19:14:40.692Z,63.81
2023-02-19T19:16:43.271Z,64.00
2023-02-19T19:18:47.409Z,63.99
2023-02-19T19:20:49.667Z,64.11
2023-02-19T19:22:53.004Z,63.80
2023-02-19T19:24:55.180Z,63.91
2023-02-19T19:26:57.222Z,64.22
2023-02-19T19:28:59.663Z,64.22
2023-02-19T19:31:05.783Z,64.48
2023-02-19T19:33:07.899Z,64.01
2023-02-19T19:35:10.226Z,64.36
2023-02-19T19:37:12.526Z,64.65
2023-02-19T19:39:15.124Z,64.66
2023-02-19T19:41:19.330Z,64.46
2023-02-19T19:43:21.493Z,63.65
2023-02-19T19:45:24.409Z,63.23
2023-02-19T19:47:26.595Z,62.82
2023-02-19T19:49:28.774Z,61.84
2023-02-19T19:51:32.736Z,61.25
2023-02-19T19:53:35.129Z,61.70
2023-02-19T19:55:37.518Z,61.50
2023-02-19T19:57:40.932Z,61.51
2023-02-19T19:59:42.935Z,61.61
2023-02-19T20:01:49.898Z,60.93
2023-02-19T20:03:52.098Z,60.77
2023-02-19T20:05:55.005Z,60.00
2023-02-19T20:07:57.091Z,59.77
2023-02-19T20:09:59.307Z,59.54
2023-02-19T20:12:02.307Z,60.03
2023-02-19T20:14:07.361Z,58.11
2023-02-19T20:16:11.057Z,57.63
2023-02-19T20:18:13.350Z,57.50
2023-02-19T20:20:17.834Z,55.76
2023-02-19T20:22:20.530Z,57.73
2023-02-19T20:24:26.121Z,55.47
2023-02-19T20:26:29.790Z,56.16
2023-02-19T20:28:32.669Z,56.10
2023-02-19T20:30:37.386Z,56.44
2023-02-19T20:32:39.332Z,56.87
2023-02-19T20:34:41.721Z,55.45
2023-02-19T20:36:48.153Z,55.70
2023-02-19T20:38:50.667Z,55.94
2023-02-19T20:40:56.603Z,55.45
2023-02-19T20:43:00.989Z,56.49
2023-02-19T20:45:06.133Z,57.02
2023-02-19T20:47:08.214Z,57.06
2023-02-19T20:49:10.461Z,56.72
2023-02-19T20:51:12.359Z,56.61
2023-02-19T20:53:14.591Z,57.16
2023-02-19T20:55:16.703Z,57.17
2023-02-19T20:57:18.527Z,57.03
2023-02-19T20:59:22.824Z,56.72
2023-02-19T21:01:28.165Z,56.18
2023-02-19T21:03:30.358Z,56.22
2023-02-19T21:05:32.404Z,56.60
2023-02-19T21:07:34.731Z,57.19
2023-02-19T21:09:36.697Z,57.93
2023-02-19T21:11:39.514Z,57.64
2023-02-19T21:13:43.306Z,58.18
2023-02-19T21:15:46.009Z,59.21
2023-02-19T21:17:48.197Z,59.00
2023-02-19T21:19:50.359Z,58.77
2023-02-19T21:21:52.413Z,59.26
2023-02-19T21:23:55.719Z,59.32
2023-02-19T21:25:57.892Z,60.06
2023-02-19T21:27:59.850Z,60.20
2023-02-19T21:30:02.045Z,60.47
2023-02-19T21:32:04.218Z,59.83
2023-02-19T21:34:08.054Z,59.69
2023-02-19T21:36:10.733Z,60.09
2023-02-19T21:38:13.057Z,60.23
2023-02-19T21:40:15.663Z,60.25
2023-02-19T21:42:18.079Z,60.67
2023-02-19T21:44:21.459Z,60.37
2023-02-19T21:46:25.249Z,60.09
2023-02-19T21:48:27.944Z,60.30
2023-02-19T21:50:30.089Z,60.84
2023-02-19T21:52:32.254Z,60.65
2023-02-19T21:54:34.293Z,60.34
2023-02-19T21:56:37.201Z,60.50
2023-02-19T21:58:39.475Z,60.44
2023-02-19T22:00:41.506Z,60.46
2023-02-19T22:02:43.739Z,60.48
2023-02-19T22:04:46.991Z,60.29
2023-02-19T22:06:48.948Z,60.15
2023-02-19T22:08:51.112Z,60.27
2023-02-19T22:10:53.164Z,59.90
2023-02-19T22:12:55.741Z,59.76
2023-02-19T22:14:57.977Z,59.58
2023-02-19T22:17:00.050Z,59.69
2023-02-19T22:19:02.238Z,59.48
2023-02-19T22:21:05.704Z,59.21
2023-02-19T22:23:08.244Z,59.42
2023-02-19T22:25:10.171Z,59.52
2023-02-19T22:27:12.272Z,59.46
2023-02-19T22:29:15.803Z,58.45
2023-02-19T22:31:20.439Z,57.96
2023-02-19T22:33:23.626Z,57.87
2023-02-19T22:35:27.125Z,58.14
2023-02-19T22:37:30.099Z,57.38
2023-02-19T22:39:32.374Z,58.05
2023-02-19T22:41:36.734Z,57.01
2023-02-19T22:43:39.101Z,57.00
2023-02-19T22:45:41.478Z,56.63
2023-02-19T22:47:47.132Z,55.83
2023-02-19T22:49:49.107Z,56.32
2023-02-19T22:51:56.828Z,56.31
2023-02-19T22:54:00.265Z,56.81
2023-02-19T22:56:02.272Z,56.18
2023-02-19T22:58:04.282Z,56.75
2023-02-19T23:00:07.219Z,56.15
2023-02-19T23:02:09.211Z,56.76
2023-02-19T23:04:11.626Z,56.48
2023-02-19T23:06:20.529Z,56.60
2023-02-19T23:08:22.657Z,56.86
2023-02-19T23:10:24.780Z,56.95
2023-02-19T23:12:26.854Z,57.12
2023-02-19T23:14:29.074Z,56.99
2023-02-19T23:16:36.232Z,56.69
2023-02-19T23:18:38.439Z,56.14
2023-02-19T23:20:40.592Z,56.47
2023-02-19T23:22:43.697Z,56.63
2023-02-19T23:24:46.214Z,56.32
2023-02-19T23:26:50.894Z,56.12
2023-02-19T23:28:53.064Z,56.49
2023-02-19T23:30:55.287Z,55.46
2023-02-19T23:32:57.607Z,55.97
2023-02-19T23:34:59.507Z,55.90
2023-02-19T23:37:02.430Z,55.98
2023-02-19T23:39:04.374Z,55.69
2023-02-19T23:41:11.886Z,55.83
2023-02-19T23:43:13.798Z,55.70
2023-02-19T23:45:16.896Z,55.94
2023-02-19T23:47:20.230Z,55.61
2023-02-19T23:49:23.008Z,55.94
2023-02-19T23:51:25.294Z,55.05
2023-02-19T23:53:27.353Z,54.66
2023-02-19T23:55:30.748Z,54.59
2023-02-19T23:57:32.832Z,54.87
2023-02-19T23:59:36.028Z,54.51
